sensor_id;sensor_type;location;lat;lon;timestamp;temperature;humidity
108;DHT22;49;48.530;9.200;2022-07-18T00:09:05;23.40;1.00
108;DHT22;49;48.530;9.200;2022-07-18T00:11:32;23.70;1.00
108;DHT22;49;48.530;9.200;2022-07-18T00:43:58;23.30;1.00
108;DHT22;49;48.530;9.200;2022-07-18T00:48:55;22.60;1.00
108;DHT22;49;48.530;9.200;2022-07-18T01:24:01;21.90;1.00
108;DHT22;49;48.530;9.200;2022-07-18T01:49:02;22.20;1.00
108;DHT22;49;48.530;9.200;2022-07-18T01:54:00;22.50;1.00
108;DHT22;49;48.530;9.200;2022-07-18T01:58:55;22.50;1.00
108;DHT22;49;48.530;9.200;2022-07-18T02:01:23;22.70;1.00
108;DHT22;49;48.530;9.200;2022-07-18T02:03:50;22.70;1.00
108;DHT22;49;48.530;9.200;2022-07-18T02:06:21;22.40;1.00
108;DHT22;49;48.530;9.200;2022-07-18T02:08:49;22.40;1.00
108;DHT22;49;48.530;9.200;2022-07-18T02:28:37;22.30;1.00
108;DHT22;49;48.530;9.200;2022-07-18T02:38:29;22.90;1.00
108;DHT22;49;48.530;9.200;2022-07-18T03:50:30;20.80;1.00
108;DHT22;49;48.530;9.200;2022-07-18T03:52:57;20.60;1.00
108;DHT22;49;48.530;9.200;2022-07-18T04:32:46;21.60;1.00
108;DHT22;49;48.530;9.200;2022-07-18T04:35:15;21.40;1.00
108;DHT22;49;48.530;9.200;2022-07-18T04:37:42;21.80;1.00
108;DHT22;49;48.530;9.200;2022-07-18T04:42:44;22.20;1.00
108;DHT22;49;48.530;9.200;2022-07-18T04:55:18;22.50;1.00
108;DHT22;49;48.530;9.200;2022-07-18T06:35:14;36.10;1.00
108;DHT22;49;48.530;9.200;2022-07-18T07:35:22;39.00;1.00
108;DHT22;49;48.530;9.200;2022-07-18T07:37:51;38.60;1.00
108;DHT22;49;48.530;9.200;2022-07-18T07:47:54;39.70;1.00
108;DHT22;49;48.530;9.200;2022-07-18T08:05:24;40.40;1.00
108;DHT22;49;48.530;9.200;2022-07-18T08:10:19;39.50;1.00
108;DHT22;49;48.530;9.200;2022-07-18T08:38:05;39.50;1.00
108;DHT22;49;48.530;9.200;2022-07-18T08:58:05;39.20;1.00
108;DHT22;49;48.530;9.200;2022-07-18T09:18:05;37.50;1.00
108;DHT22;49;48.530;9.200;2022-07-18T09:28:09;37.10;1.00
108;DHT22;49;48.530;9.200;2022-07-18T09:30:37;36.40;1.00
108;DHT22;49;48.530;9.200;2022-07-18T09:33:10;36.30;1.00
108;DHT22;49;48.530;9.200;2022-07-18T09:43:05;35.00;1.00
108;DHT22;49;48.530;9.200;2022-07-18T09:55:31;34.50;1.00
108;DHT22;49;48.530;9.200;2022-07-18T10:03:05;34.30;1.00
108;DHT22;49;48.530;9.200;2022-07-18T10:10:37;33.90;1.00
108;DHT22;49;48.530;9.200;2022-07-18T10:18:10;34.20;1.00
108;DHT22;49;48.530;9.200;2022-07-18T10:20:41;33.80;1.00
108;DHT22;49;48.530;9.200;2022-07-18T10:30:43;33.30;1.00
108;DHT22;49;48.530;9.200;2022-07-18T10:33:36;34.00;1.00
108;DHT22;49;48.530;9.200;2022-07-18T10:41:12;34.00;1.00
108;DHT22;49;48.530;9.200;2022-07-18T10:46:13;34.40;1.00
108;DHT22;49;48.530;9.200;2022-07-18T10:48:55;34.70;1.00
108;DHT22;49;48.530;9.200;2022-07-18T10:51:30;34.80;1.00
108;DHT22;49;48.530;9.200;2022-07-18T10:54:04;34.40;1.00
108;DHT22;49;48.530;9.200;2022-07-18T10:59:15;34.50;1.00
108;DHT22;49;48.530;9.200;2022-07-18T11:01:51;34.40;1.00
108;DHT22;49;48.530;9.200;2022-07-18T11:24:28;34.30;1.00
108;DHT22;49;48.530;9.200;2022-07-18T11:32:02;33.70;1.00
108;DHT22;49;48.530;9.200;2022-07-18T11:34:30;33.70;1.00
108;DHT22;49;48.530;9.200;2022-07-18T11:39:39;33.80;1.00
108;DHT22;49;48.530;9.200;2022-07-18T11:44:36;34.50;1.00
108;DHT22;49;48.530;9.200;2022-07-18T11:49:36;33.70;1.00
108;DHT22;49;48.530;9.200;2022-07-18T11:57:09;34.00;1.00
108;DHT22;49;48.530;9.200;2022-07-18T12:02:05;34.00;1.00
108;DHT22;49;48.530;9.200;2022-07-18T12:04:33;34.20;1.00
108;DHT22;49;48.530;9.200;2022-07-18T12:09:28;33.20;1.00
108;DHT22;49;48.530;9.200;2022-07-18T12:11:56;33.20;1.00
108;DHT22;49;48.530;9.200;2022-07-18T12:16:58;33.80;1.00
108;DHT22;49;48.530;9.200;2022-07-18T12:24:31;34.60;1.00
108;DHT22;49;48.530;9.200;2022-07-18T12:27:13;34.90;1.00
108;DHT22;49;48.530;9.200;2022-07-18T12:32:18;34.50;1.00
108;DHT22;49;48.530;9.200;2022-07-18T12:40:01;34.30;1.00
108;DHT22;49;48.530;9.200;2022-07-18T12:42:30;33.80;1.00
108;DHT22;49;48.530;9.200;2022-07-18T12:50:09;33.50;1.00
108;DHT22;49;48.530;9.200;2022-07-18T13:13:00;34.40;1.00
108;DHT22;49;48.530;9.200;2022-07-18T13:15:32;34.30;1.00
108;DHT22;49;48.530;9.200;2022-07-18T13:17:59;34.40;1.00
108;DHT22;49;48.530;9.200;2022-07-18T13:23:00;34.00;1.00
108;DHT22;49;48.530;9.200;2022-07-18T13:25:29;34.30;1.00
108;DHT22;49;48.530;9.200;2022-07-18T13:30:35;34.60;1.00
108;DHT22;49;48.530;9.200;2022-07-18T13:33:03;34.70;1.00
108;DHT22;49;48.530;9.200;2022-07-18T13:38:04;34.40;1.00
108;DHT22;49;48.530;9.200;2022-07-18T13:40:31;34.40;1.00
108;DHT22;49;48.530;9.200;2022-07-18T13:42:59;34.40;1.00
108;DHT22;49;48.530;9.200;2022-07-18T13:45:28;34.70;1.00
108;DHT22;49;48.530;9.200;2022-07-18T13:50:29;34.20;1.00
108;DHT22;49;48.530;9.200;2022-07-18T13:52:58;34.30;1.00
108;DHT22;49;48.530;9.200;2022-07-18T13:57:56;34.50;1.00
108;DHT22;49;48.530;9.200;2022-07-18T14:05:22;34.80;1.00
108;DHT22;49;48.530;9.200;2022-07-18T14:07:52;34.70;1.00
108;DHT22;49;48.530;9.200;2022-07-18T14:10:19;35.20;1.00
108;DHT22;49;48.530;9.200;2022-07-18T14:12:46;35.30;1.00
108;DHT22;49;48.530;9.200;2022-07-18T14:15:14;35.60;1.00
108;DHT22;49;48.530;9.200;2022-07-18T14:20:12;35.00;1.00
108;DHT22;49;48.530;9.200;2022-07-18T14:22:41;34.90;1.00
108;DHT22;49;48.530;9.200;2022-07-18T14:27:39;35.20;1.00
108;DHT22;49;48.530;9.200;2022-07-18T14:30:09;34.90;1.00
108;DHT22;49;48.530;9.200;2022-07-18T14:32:36;34.70;1.00
108;DHT22;49;48.530;9.200;2022-07-18T14:35:05;34.70;1.00
108;DHT22;49;48.530;9.200;2022-07-18T14:37:33;34.50;1.00
108;DHT22;49;48.530;9.200;2022-07-18T14:40:04;34.80;1.00
108;DHT22;49;48.530;9.200;2022-07-18T14:42:33;35.20;1.00
108;DHT22;49;48.530;9.200;2022-07-18T14:45:03;35.00;1.00
108;DHT22;49;48.530;9.200;2022-07-18T14:47:31;34.60;1.00
108;DHT22;49;48.530;9.200;2022-07-18T14:52:33;34.80;1.00
108;DHT22;49;48.530;9.200;2022-07-18T14:55:00;35.20;1.00
108;DHT22;49;48.530;9.200;2022-07-18T14:57:27;35.10;1.00
108;DHT22;49;48.530;9.200;2022-07-18T14:59:54;34.80;1.00
108;DHT22;49;48.530;9.200;2022-07-18T15:02:22;34.30;1.00
108;DHT22;49;48.530;9.200;2022-07-18T15:04:49;34.00;1.00
108;DHT22;49;48.530;9.200;2022-07-18T15:07:16;34.00;1.00
108;DHT22;49;48.530;9.200;2022-07-18T15:09:44;34.40;1.00
108;DHT22;49;48.530;9.200;2022-07-18T15:14:40;34.70;1.00
108;DHT22;49;48.530;9.200;2022-07-18T15:17:08;34.80;1.00
108;DHT22;49;48.530;9.200;2022-07-18T15:19:36;34.60;1.00
108;DHT22;49;48.530;9.200;2022-07-18T15:22:03;34.70;1.00
108;DHT22;49;48.530;9.200;2022-07-18T15:24:31;35.00;1.00
108;DHT22;49;48.530;9.200;2022-07-18T15:26:59;34.80;1.00
108;DHT22;49;48.530;9.200;2022-07-18T15:29:26;34.90;1.00
108;DHT22;49;48.530;9.200;2022-07-18T15:31:53;34.80;1.00
108;DHT22;49;48.530;9.200;2022-07-18T15:34:20;34.70;1.00
108;DHT22;49;48.530;9.200;2022-07-18T15:36:49;34.30;1.00
108;DHT22;49;48.530;9.200;2022-07-18T15:39:17;34.40;1.00
108;DHT22;49;48.530;9.200;2022-07-18T15:54:16;34.40;1.00
108;DHT22;49;48.530;9.200;2022-07-18T15:59:11;34.00;1.00
108;DHT22;49;48.530;9.200;2022-07-18T16:01:38;34.10;1.00
108;DHT22;49;48.530;9.200;2022-07-18T16:04:07;34.40;1.00
108;DHT22;49;48.530;9.200;2022-07-18T16:06:34;34.80;1.00
108;DHT22;49;48.530;9.200;2022-07-18T16:09:04;34.80;1.00
108;DHT22;49;48.530;9.200;2022-07-18T16:11:32;34.40;1.00
108;DHT22;49;48.530;9.200;2022-07-18T16:14:04;34.40;1.00
108;DHT22;49;48.530;9.200;2022-07-18T16:21:39;34.40;1.00
108;DHT22;49;48.530;9.200;2022-07-18T16:26:37;34.30;1.00
108;DHT22;49;48.530;9.200;2022-07-18T16:29:04;34.40;1.00
108;DHT22;49;48.530;9.200;2022-07-18T16:34:01;34.20;1.00
108;DHT22;49;48.530;9.200;2022-07-18T16:38:57;34.00;1.00
108;DHT22;49;48.530;9.200;2022-07-18T16:41:24;33.80;1.00
108;DHT22;49;48.530;9.200;2022-07-18T16:46:24;33.50;1.00
108;DHT22;49;48.530;9.200;2022-07-18T16:51:20;34.00;1.00
108;DHT22;49;48.530;9.200;2022-07-18T16:53:48;33.90;1.00
108;DHT22;49;48.530;9.200;2022-07-18T16:56:16;34.00;1.00
108;DHT22;49;48.530;9.200;2022-07-18T17:01:11;33.50;1.00
108;DHT22;49;48.530;9.200;2022-07-18T17:03:41;33.60;1.00
108;DHT22;49;48.530;9.200;2022-07-18T17:06:08;33.50;1.00
108;DHT22;49;48.530;9.200;2022-07-18T17:08:36;33.70;1.00
108;DHT22;49;48.530;9.200;2022-07-18T17:11:03;33.50;1.00
108;DHT22;49;48.530;9.200;2022-07-18T17:13:31;33.60;1.00
108;DHT22;49;48.530;9.200;2022-07-18T17:15:59;33.70;1.00
108;DHT22;49;48.530;9.200;2022-07-18T17:23:30;33.60;1.00
108;DHT22;49;48.530;9.200;2022-07-18T17:25:58;33.50;1.00
108;DHT22;49;48.530;9.200;2022-07-18T17:28:26;33.40;1.00
108;DHT22;49;48.530;9.200;2022-07-18T17:30:53;33.40;1.00
108;DHT22;49;48.530;9.200;2022-07-18T17:33:21;33.40;1.00
108;DHT22;49;48.530;9.200;2022-07-18T17:35:49;33.10;1.00
108;DHT22;49;48.530;9.200;2022-07-18T17:38:19;33.00;1.00
108;DHT22;49;48.530;9.200;2022-07-18T17:45:46;33.10;1.00
108;DHT22;49;48.530;9.200;2022-07-18T17:48:15;33.10;1.00
108;DHT22;49;48.530;9.200;2022-07-18T17:50:45;33.10;1.00
108;DHT22;49;48.530;9.200;2022-07-18T17:53:13;33.20;1.00
108;DHT22;49;48.530;9.200;2022-07-18T17:55:40;33.30;1.00
108;DHT22;49;48.530;9.200;2022-07-18T17:58:08;33.20;1.00
108;DHT22;49;48.530;9.200;2022-07-18T18:00:35;32.80;1.00
108;DHT22;49;48.530;9.200;2022-07-18T18:08:10;32.40;1.00
108;DHT22;49;48.530;9.200;2022-07-18T18:10:51;32.50;1.00
108;DHT22;49;48.530;9.200;2022-07-18T18:18:27;32.60;1.00
108;DHT22;49;48.530;9.200;2022-07-18T18:33:39;32.10;1.00
108;DHT22;49;48.530;9.200;2022-07-18T18:36:06;32.10;1.00
108;DHT22;49;48.530;9.200;2022-07-18T18:38:35;32.20;1.00
108;DHT22;49;48.530;9.200;2022-07-18T18:41:02;32.30;1.00
108;DHT22;49;48.530;9.200;2022-07-18T18:43:30;32.20;1.00
108;DHT22;49;48.530;9.200;2022-07-18T18:45:57;32.10;1.00
108;DHT22;49;48.530;9.200;2022-07-18T18:48:24;32.00;1.00
108;DHT22;49;48.530;9.200;2022-07-18T18:50:52;31.90;1.00
108;DHT22;49;48.530;9.200;2022-07-18T18:53:20;31.60;1.00
108;DHT22;49;48.530;9.200;2022-07-18T18:55:48;31.70;1.00
108;DHT22;49;48.530;9.200;2022-07-18T18:58:16;31.80;1.00
108;DHT22;49;48.530;9.200;2022-07-18T19:00:43;32.10;1.00
108;DHT22;49;48.530;9.200;2022-07-18T19:03:11;32.30;1.00
108;DHT22;49;48.530;9.200;2022-07-18T19:05:38;32.40;1.00
108;DHT22;49;48.530;9.200;2022-07-18T19:08:06;32.40;1.00
108;DHT22;49;48.530;9.200;2022-07-18T19:10:33;32.30;1.00
108;DHT22;49;48.530;9.200;2022-07-18T19:13:00;31.90;1.00
108;DHT22;49;48.530;9.200;2022-07-18T19:15:27;31.80;1.00
108;DHT22;49;48.530;9.200;2022-07-18T19:17:54;31.60;1.00
108;DHT22;49;48.530;9.200;2022-07-18T19:20:21;31.50;1.00
108;DHT22;49;48.530;9.200;2022-07-18T19:22:48;31.20;1.00
108;DHT22;49;48.530;9.200;2022-07-18T19:25:17;31.00;1.00
108;DHT22;49;48.530;9.200;2022-07-18T19:27:45;31.20;1.00
108;DHT22;49;48.530;9.200;2022-07-18T19:30:12;31.20;1.00
108;DHT22;49;48.530;9.200;2022-07-18T19:32:39;31.30;1.00
108;DHT22;49;48.530;9.200;2022-07-18T19:35:07;31.30;1.00
108;DHT22;49;48.530;9.200;2022-07-18T19:37:36;31.30;1.00
108;DHT22;49;48.530;9.200;2022-07-18T19:40:04;31.20;1.00
108;DHT22;49;48.530;9.200;2022-07-18T19:42:32;31.00;1.00
108;DHT22;49;48.530;9.200;2022-07-18T19:44:59;30.70;1.00
108;DHT22;49;48.530;9.200;2022-07-18T19:47:26;30.60;1.00
108;DHT22;49;48.530;9.200;2022-07-18T19:49:53;30.60;1.00
108;DHT22;49;48.530;9.200;2022-07-18T19:52:20;30.40;1.00
108;DHT22;49;48.530;9.200;2022-07-18T19:54:47;30.30;1.00
108;DHT22;49;48.530;9.200;2022-07-18T19:57:14;30.10;1.00
108;DHT22;49;48.530;9.200;2022-07-18T19:59:42;30.00;1.00
108;DHT22;49;48.530;9.200;2022-07-18T20:02:09;29.90;1.00
108;DHT22;49;48.530;9.200;2022-07-18T20:04:36;29.80;1.00
108;DHT22;49;48.530;9.200;2022-07-18T20:09:39;29.70;1.00
108;DHT22;49;48.530;9.200;2022-07-18T20:12:06;29.50;1.00
108;DHT22;49;48.530;9.200;2022-07-18T20:14:33;29.40;1.00
108;DHT22;49;48.530;9.200;2022-07-18T20:17:01;29.40;1.00
108;DHT22;49;48.530;9.200;2022-07-18T20:19:28;29.20;1.00
108;DHT22;49;48.530;9.200;2022-07-18T20:21:55;29.20;1.00
108;DHT22;49;48.530;9.200;2022-07-18T20:24:22;29.00;1.00
108;DHT22;49;48.530;9.200;2022-07-18T20:26:49;29.20;1.00
108;DHT22;49;48.530;9.200;2022-07-18T20:29:16;29.20;1.00
108;DHT22;49;48.530;9.200;2022-07-18T20:31:43;29.00;1.00
108;DHT22;49;48.530;9.200;2022-07-18T20:34:12;29.10;1.00
108;DHT22;49;48.530;9.200;2022-07-18T20:36:39;29.00;1.00
108;DHT22;49;48.530;9.200;2022-07-18T20:39:06;28.80;1.00
108;DHT22;49;48.530;9.200;2022-07-18T20:41:33;28.60;1.00
108;DHT22;49;48.530;9.200;2022-07-18T20:44:00;28.60;1.00
108;DHT22;49;48.530;9.200;2022-07-18T20:46:28;28.40;1.00
108;DHT22;49;48.530;9.200;2022-07-18T20:54:02;28.20;1.00
108;DHT22;49;48.530;9.200;2022-07-18T20:56:30;28.30;1.00
108;DHT22;49;48.530;9.200;2022-07-18T20:58:57;28.10;1.00
108;DHT22;49;48.530;9.200;2022-07-18T21:01:25;28.00;1.00
108;DHT22;49;48.530;9.200;2022-07-18T21:03:52;28.00;1.00
108;DHT22;49;48.530;9.200;2022-07-18T21:06:19;27.80;1.00
108;DHT22;49;48.530;9.200;2022-07-18T21:08:46;27.70;1.00
108;DHT22;49;48.530;9.200;2022-07-18T21:11:15;27.80;1.00
108;DHT22;49;48.530;9.200;2022-07-18T21:13:42;27.60;1.00
108;DHT22;49;48.530;9.200;2022-07-18T21:16:10;27.50;1.00
108;DHT22;49;48.530;9.200;2022-07-18T21:18:37;27.30;1.00
108;DHT22;49;48.530;9.200;2022-07-18T21:21:05;27.30;1.00
108;DHT22;49;48.530;9.200;2022-07-18T21:23:32;27.20;1.00
108;DHT22;49;48.530;9.200;2022-07-18T21:25:59;27.10;1.00
108;DHT22;49;48.530;9.200;2022-07-18T21:28:28;27.10;1.00
108;DHT22;49;48.530;9.200;2022-07-18T21:30:55;27.10;1.00
108;DHT22;49;48.530;9.200;2022-07-18T21:33:25;27.10;1.00
108;DHT22;49;48.530;9.200;2022-07-18T21:35:53;27.10;1.00
108;DHT22;49;48.530;9.200;2022-07-18T21:38:22;27.20;1.00
108;DHT22;49;48.530;9.200;2022-07-18T21:40:50;27.10;1.00
108;DHT22;49;48.530;9.200;2022-07-18T21:43:17;27.00;1.00
108;DHT22;49;48.530;9.200;2022-07-18T21:45:46;26.90;1.00
108;DHT22;49;48.530;9.200;2022-07-18T21:48:14;26.80;1.00
108;DHT22;49;48.530;9.200;2022-07-18T21:50:43;26.80;1.00
108;DHT22;49;48.530;9.200;2022-07-18T21:53:11;26.70;1.00
108;DHT22;49;48.530;9.200;2022-07-18T21:55:39;26.60;1.00
108;DHT22;49;48.530;9.200;2022-07-18T21:58:06;26.70;1.00
108;DHT22;49;48.530;9.200;2022-07-18T22:00:33;26.60;1.00
108;DHT22;49;48.530;9.200;2022-07-18T22:03:03;26.50;1.00
108;DHT22;49;48.530;9.200;2022-07-18T22:05:32;26.50;1.00
108;DHT22;49;48.530;9.200;2022-07-18T22:07:59;26.50;1.00
108;DHT22;49;48.530;9.200;2022-07-18T22:10:26;26.50;1.00
108;DHT22;49;48.530;9.200;2022-07-18T22:12:53;26.50;1.00
108;DHT22;49;48.530;9.200;2022-07-18T22:15:22;26.50;1.00
108;DHT22;49;48.530;9.200;2022-07-18T22:17:50;26.50;1.00
108;DHT22;49;48.530;9.200;2022-07-18T22:20:18;26.40;1.00
108;DHT22;49;48.530;9.200;2022-07-18T22:22:49;26.20;1.00
108;DHT22;49;48.530;9.200;2022-07-18T22:25:17;25.80;1.00
108;DHT22;49;48.530;9.200;2022-07-18T22:27:44;25.80;1.00
108;DHT22;49;48.530;9.200;2022-07-18T22:30:11;25.80;1.00
108;DHT22;49;48.530;9.200;2022-07-18T22:32:40;25.90;1.00
108;DHT22;49;48.530;9.200;2022-07-18T22:35:08;25.80;1.00
108;DHT22;49;48.530;9.200;2022-07-18T22:37:37;25.90;1.00
108;DHT22;49;48.530;9.200;2022-07-18T22:40:06;25.80;1.00
108;DHT22;49;48.530;9.200;2022-07-18T22:42:33;25.80;1.00
108;DHT22;49;48.530;9.200;2022-07-18T22:47:40;25.90;1.00
108;DHT22;49;48.530;9.200;2022-07-18T22:57:38;25.10;1.00
108;DHT22;49;48.530;9.200;2022-07-18T23:00:09;25.30;1.00
108;DHT22;49;48.530;9.200;2022-07-18T23:02:37;25.20;1.00
108;DHT22;49;48.530;9.200;2022-07-18T23:05:06;25.30;1.00
108;DHT22;49;48.530;9.200;2022-07-18T23:07:50;25.40;1.00
108;DHT22;49;48.530;9.200;2022-07-18T23:10:18;25.30;1.00
108;DHT22;49;48.530;9.200;2022-07-18T23:12:58;25.30;1.00
108;DHT22;49;48.530;9.200;2022-07-18T23:18:02;25.20;1.00
108;DHT22;49;48.530;9.200;2022-07-18T23:25:34;25.20;1.00
108;DHT22;49;48.530;9.200;2022-07-18T23:30:38;25.10;1.00
108;DHT22;49;48.530;9.200;2022-07-18T23:33:14;25.00;1.00
108;DHT22;49;48.530;9.200;2022-07-18T23:35:41;24.80;1.00
108;DHT22;49;48.530;9.200;2022-07-18T23:58:36;24.60;1.00
